Time;durP1;ratioP1;P1;durP2;ratioP2;P2;SDS_P1;SDS_P2;PMS_P1;PMS_P2;Temp;Humidity;BMP_temperature;BMP_pressure;BME280_temperature;BME280_humidity;BME280_pressure;Samples;Min_cycle;Max_cycle;Signal;HPM_P1;HPM_P2
2022/11/16 00:00:19;;;;;;;7.53;4.80;;;9.40;99.90;;;;;;5056889;28;20468;-72
2022/11/16 00:02:47;;;;;;;7.00;4.50;;;9.40;99.90;;;;;;5055924;28;20033;-72
2022/11/16 00:05:13;;;;;;;6.70;4.85;;;9.40;99.90;;;;;;5062235;28;20040;-72
2022/11/16 00:07:38;;;;;;;6.88;4.70;;;9.40;99.90;;;;;;5073533;28;20028;-72
2022/11/16 00:10:04;;;;;;;5.93;4.63;;;9.40;99.90;;;;;;5078176;28;20055;-72
2022/11/16 00:12:30;;;;;;;9.10;5.00;;;9.40;99.90;;;;;;5070269;28;20032;-72
2022/11/16 00:14:56;;;;;;;7.88;5.10;;;9.40;99.90;;;;;;5072346;28;20028;-72
2022/11/16 00:17:21;;;;;;;4.78;3.95;;;9.40;99.90;;;;;;5072167;28;20390;-72
2022/11/16 00:19:47;;;;;;;6.25;3.72;;;9.40;99.90;;;;;;5066677;28;20091;-72
2022/11/16 00:22:12;;;;;;;7.18;3.45;;;9.40;99.90;;;;;;5056603;28;20032;-72
2022/11/16 00:24:38;;;;;;;4.78;3.70;;;9.40;99.90;;;;;;5058761;28;20113;-73
2022/11/16 00:27:04;;;;;;;5.88;3.85;;;9.50;99.90;;;;;;5059146;28;20029;-72
2022/11/16 00:29:29;;;;;;;6.72;4.07;;;9.50;99.90;;;;;;5058445;28;20035;-72
2022/11/16 00:31:55;;;;;;;4.50;3.25;;;9.50;99.90;;;;;;5034242;28;20108;-72
2022/11/16 00:34:22;;;;;;;4.10;3.45;;;9.50;99.90;;;;;;5060337;28;20035;-72
2022/11/16 00:36:48;;;;;;;3.78;3.10;;;9.50;99.90;;;;;;5055658;28;20045;-72
2022/11/16 00:39:15;;;;;;;5.13;3.40;;;9.40;99.90;;;;;;5059882;28;20029;-73
2022/11/16 00:41:41;;;;;;;8.27;3.78;;;9.40;99.90;;;;;;5043708;28;21246;-72
2022/11/16 00:44:07;;;;;;;6.63;3.65;;;9.40;99.90;;;;;;5053926;28;20039;-72
2022/11/16 00:46:33;;;;;;;7.50;4.30;;;9.30;99.90;;;;;;5062382;28;20025;-73
2022/11/16 00:48:58;;;;;;;4.57;3.08;;;9.40;99.90;;;;;;5071814;28;20463;-72
2022/11/16 00:51:24;;;;;;;6.15;3.70;;;9.30;99.90;;;;;;5052541;28;20090;-72
2022/11/16 00:53:50;;;;;;;8.18;3.53;;;9.30;99.90;;;;;;5055686;28;20103;-72
2022/11/16 00:56:15;;;;;;;5.28;3.00;;;9.30;99.90;;;;;;5070775;28;20455;-71
2022/11/16 00:58:41;;;;;;;7.90;3.58;;;9.30;99.90;;;;;;5068383;28;20025;-73
2022/11/16 01:01:08;;;;;;;3.63;3.22;;;9.30;99.90;;;;;;5058575;28;20412;-72
2022/11/16 01:03:35;;;;;;;4.72;3.10;;;9.30;99.90;;;;;;5065134;28;20064;-72
2022/11/16 01:06:02;;;;;;;9.70;3.65;;;9.30;99.90;;;;;;5059804;28;20040;-72
2022/11/16 01:08:28;;;;;;;5.30;2.97;;;9.30;99.90;;;;;;5059475;28;20112;-72
2022/11/16 01:10:53;;;;;;;5.05;3.53;;;9.30;99.90;;;;;;5053598;28;20104;-72
2022/11/16 01:13:19;;;;;;;5.35;2.97;;;9.30;99.90;;;;;;5069346;28;20081;-72
2022/11/16 01:15:47;;;;;;;4.72;3.30;;;9.30;99.90;;;;;;5059207;28;20043;-72
2022/11/16 01:18:13;;;;;;;5.43;3.50;;;9.30;99.90;;;;;;5070596;28;20064;-72
2022/11/16 01:20:39;;;;;;;4.28;2.90;;;9.30;99.90;;;;;;5066199;28;20066;-72
2022/11/16 01:23:05;;;;;;;9.68;4.70;;;9.20;99.90;;;;;;5058102;28;20036;-72
2022/11/16 01:25:30;;;;;;;8.77;3.70;;;9.30;99.90;;;;;;5060436;28;20072;-72
2022/11/16 01:27:56;;;;;;;5.85;3.47;;;9.20;99.90;;;;;;5060398;28;20081;-72
2022/11/16 01:30:21;;;;;;;5.40;4.35;;;9.20;99.90;;;;;;5064813;28;20382;-72
2022/11/16 01:32:47;;;;;;;5.30;3.85;;;9.20;99.90;;;;;;5058541;28;20065;-72
2022/11/16 01:35:17;;;;;;;5.40;3.60;;;9.20;99.90;;;;;;5069559;28;20033;-72
2022/11/16 01:37:43;;;;;;;5.57;4.10;;;9.20;99.90;;;;;;5062797;28;20045;-72
2022/11/16 01:40:10;;;;;;;5.22;3.70;;;9.20;99.90;;;;;;5058887;28;20029;-72
2022/11/16 01:42:36;;;;;;;5.05;3.95;;;9.20;99.90;;;;;;5064479;28;20090;-72
2022/11/16 01:45:04;;;;;;;5.53;3.90;;;9.20;99.90;;;;;;5066198;28;20467;-72
2022/11/16 01:47:30;;;;;;;5.40;3.65;;;9.20;99.90;;;;;;5052781;28;20083;-71
2022/11/16 01:50:11;;;;;;;6.82;4.18;;;9.20;99.90;;;;;;5053986;28;20259;-72
2022/11/16 01:52:47;;;;;;;6.43;3.28;;;9.20;99.90;;;;;;5054266;28;20034;-72
2022/11/16 01:55:13;;;;;;;5.40;3.67;;;9.30;99.90;;;;;;5067114;28;20036;-71
2022/11/16 01:57:42;;;;;;;10.60;3.78;;;9.30;99.90;;;;;;5073569;28;20036;-72
2022/11/16 02:00:10;;;;;;;5.90;3.25;;;9.30;99.90;;;;;;5069420;28;20496;-71
2022/11/16 02:02:35;;;;;;;6.72;3.72;;;9.30;99.90;;;;;;5060386;28;20025;-72
2022/11/16 02:05:02;;;;;;;7.95;3.90;;;9.30;99.90;;;;;;5068538;28;20358;-71
2022/11/16 02:10:34;;;;;;;4.30;3.25;;;9.40;99.90;;;;;;5070888;28;20082;-71
2022/11/16 02:13:10;;;;;;;4.28;3.55;;;9.40;99.90;;;;;;5073864;28;20077;-70
2022/11/16 02:16:00;;;;;;;4.68;3.13;;;9.40;99.90;;;;;;5064533;28;20037;-71
2022/11/16 02:19:05;;;;;;;4.53;3.42;;;9.50;99.90;;;;;;5063772;28;20032;-70
2022/11/16 02:21:42;;;;;;;5.50;3.70;;;9.50;99.90;;;;;;5063686;28;20479;-70
2022/11/16 02:24:32;;;;;;;5.95;3.70;;;9.50;99.90;;;;;;5073954;28;20033;-71
2022/11/16 02:27:18;;;;;;;5.32;3.45;;;9.50;99.90;;;;;;5054031;28;20029;-70
2022/11/16 02:29:50;;;;;;;4.20;3.30;;;9.50;99.90;;;;;;5070352;28;20114;-70
2022/11/16 02:32:32;;;;;;;4.85;3.25;;;9.50;99.90;;;;;;5060221;28;20029;-70
2022/11/16 02:35:18;;;;;;;5.18;3.75;;;9.40;99.90;;;;;;5068693;28;20032;-70
2022/11/16 02:37:51;;;;;;;6.35;3.95;;;9.30;99.90;;;;;;5072482;28;20111;-70
2022/11/16 02:40:21;;;;;;;4.53;3.80;;;9.30;99.90;;;;;;5058898;28;20070;-70
2022/11/16 02:42:54;;;;;;;7.53;3.47;;;9.30;99.90;;;;;;5063698;28;20021;-71
2022/11/16 02:45:23;;;;;;;5.78;3.58;;;9.20;99.90;;;;;;5059018;28;20029;-70
2022/11/16 02:47:52;;;;;;;4.82;3.75;;;9.30;99.90;;;;;;5059389;28;20486;-70
2022/11/16 02:50:20;;;;;;;7.28;3.90;;;9.20;99.90;;;;;;5062402;28;20089;-70
2022/11/16 02:52:46;;;;;;;5.45;3.92;;;9.20;99.90;;;;;;5060710;28;20033;-71
2022/11/16 02:55:11;;;;;;;5.68;3.30;;;9.20;99.90;;;;;;5062661;28;20552;-71
2022/11/16 02:57:50;;;;;;;4.88;3.70;;;9.20;99.90;;;;;;5055975;28;20041;-71
2022/11/16 03:00:21;;;;;;;7.40;4.00;;;9.20;99.90;;;;;;5069197;28;20025;-71
2022/11/16 03:03:07;;;;;;;10.25;4.18;;;9.20;99.90;;;;;;5056650;28;20119;-71
2022/11/16 03:05:46;;;;;;;4.80;3.35;;;9.20;99.90;;;;;;5060458;28;20616;-71
2022/11/16 03:08:11;;;;;;;4.50;3.38;;;9.20;99.90;;;;;;5065799;28;20110;-71
2022/11/16 03:13:27;;;;;;;5.70;4.18;;;9.20;99.90;;;;;;5068096;28;20035;-72
2022/11/16 03:15:54;;;;;;;5.50;3.73;;;9.20;99.90;;;;;;5060042;28;20041;-71
2022/11/16 03:18:22;;;;;;;6.20;3.55;;;9.20;99.90;;;;;;5056903;28;20382;-71
2022/11/16 03:20:51;;;;;;;5.68;3.47;;;9.20;99.90;;;;;;5056500;28;20041;-72
2022/11/16 03:23:17;;;;;;;8.13;4.07;;;9.20;99.90;;;;;;5067419;28;20482;-71
2022/11/16 03:25:50;;;;;;;7.93;3.55;;;9.20;99.90;;;;;;5061733;28;20054;-72
2022/11/16 03:28:28;;;;;;;6.13;4.18;;;9.20;99.90;;;;;;5064698;28;20039;-72
2022/11/16 03:31:13;;;;;;;4.85;3.65;;;9.20;99.90;;;;;;5061289;28;20025;-72
2022/11/16 03:33:52;;;;;;;6.28;3.65;;;9.20;99.90;;;;;;5058374;28;20025;-72
2022/11/16 03:36:34;;;;;;;4.07;3.58;;;9.20;99.90;;;;;;5069324;28;20362;-72
2022/11/16 03:39:11;;;;;;;6.95;3.72;;;9.20;99.90;;;;;;5069799;28;20047;-72
2022/11/16 03:41:40;;;;;;;5.53;3.70;;;9.10;99.90;;;;;;5052081;28;20104;-73
2022/11/16 03:44:09;;;;;;;7.57;3.88;;;9.20;99.90;;;;;;5053904;28;20033;-72
2022/11/16 03:46:35;;;;;;;6.40;4.03;;;9.20;99.90;;;;;;5057422;28;20095;-72
2022/11/16 03:49:00;;;;;;;4.80;3.95;;;9.20;99.90;;;;;;5052309;28;20418;-71
2022/11/16 03:51:26;;;;;;;5.40;4.57;;;9.20;99.90;;;;;;5052470;28;20029;-71
2022/11/16 03:53:52;;;;;;;5.68;3.95;;;9.20;99.90;;;;;;5051884;28;20025;-73
2022/11/16 03:56:18;;;;;;;5.28;4.15;;;9.20;99.90;;;;;;5052411;28;20078;-71
2022/11/16 03:58:43;;;;;;;5.13;3.60;;;9.30;99.90;;;;;;5052103;28;20060;-70
2022/11/16 04:01:09;;;;;;;5.80;3.75;;;9.30;99.90;;;;;;5061305;28;20036;-70
2022/11/16 04:03:34;;;;;;;5.45;4.03;;;9.30;99.90;;;;;;5055539;28;20036;-71
2022/11/16 04:25:23;;;;;;;;;;;9.40;99.90;;;;;;5058965;28;20054;-70
2022/11/16 04:38:45;;;;;;;7.43;5.47;;;9.40;99.90;;;;;;5070203;28;20102;-70
2022/11/16 04:42:13;;;;;;;6.90;5.35;;;9.30;99.90;;;;;;5068986;28;20469;-70
2022/11/16 04:43:57;;;;;;;7.20;5.93;;;9.30;99.90;;;;;;5051098;28;20620;-70
2022/11/16 04:49:07;;;;;;;6.43;5.20;;;9.30;99.90;;;;;;5060193;28;20035;-69
2022/11/16 04:51:32;;;;;;;5.95;4.57;;;9.30;99.90;;;;;;5067540;28;20033;-70
2022/11/16 04:53:58;;;;;;;5.68;4.40;;;9.40;99.90;;;;;;5070039;28;20035;-69
2022/11/16 04:56:23;;;;;;;4.85;4.20;;;9.40;99.90;;;;;;5054130;28;20037;-70
2022/11/16 04:58:49;;;;;;;5.93;4.60;;;9.40;99.90;;;;;;5060489;28;20482;-70
2022/11/16 05:01:14;;;;;;;6.55;4.50;;;9.40;99.90;;;;;;5052463;28;20056;-72
2022/11/16 05:03:40;;;;;;;8.73;4.70;;;9.40;99.90;;;;;;5055749;28;20029;-71
2022/11/16 05:06:06;;;;;;;6.45;4.10;;;9.40;99.90;;;;;;5056719;28;20040;-71
2022/11/16 05:08:31;;;;;;;4.95;4.22;;;9.40;99.90;;;;;;5070738;28;20059;-71
2022/11/16 05:10:57;;;;;;;5.90;3.75;;;9.40;99.90;;;;;;5060260;28;20033;-72
2022/11/16 05:13:22;;;;;;;5.07;3.53;;;9.40;99.90;;;;;;5057763;28;20478;-71
2022/11/16 05:15:48;;;;;;;4.15;3.22;;;9.50;99.90;;;;;;5064044;28;20032;-71
2022/11/16 05:18:14;;;;;;;6.50;3.72;;;9.50;99.90;;;;;;5058708;28;20060;-70
2022/11/16 05:26:21;;;;;;;8.23;4.88;;;9.50;99.90;;;;;;5059770;28;20032;-71
2022/11/16 05:28:47;;;;;;;7.88;5.68;;;9.40;99.90;;;;;;5055056;28;20037;-72
2022/11/16 05:31:12;;;;;;;7.22;4.05;;;9.50;99.90;;;;;;5058025;28;20025;-72
2022/11/16 05:33:38;;;;;;;7.07;3.90;;;9.40;99.90;;;;;;5061803;28;20355;-71
2022/11/16 05:36:04;;;;;;;4.90;3.72;;;9.50;99.90;;;;;;5058213;28;20037;-69
2022/11/16 05:38:30;;;;;;;5.70;3.75;;;9.50;99.90;;;;;;5058232;28;20536;-71
2022/11/16 05:40:56;;;;;;;6.32;3.70;;;9.50;99.90;;;;;;5060809;28;20044;-70
2022/11/16 05:43:21;;;;;;;6.75;3.17;;;9.50;99.90;;;;;;5064071;28;20033;-70
2022/11/16 05:45:47;;;;;;;5.97;3.65;;;9.50;99.90;;;;;;5060346;28;20032;-73
2022/11/16 05:48:12;;;;;;;6.68;4.47;;;9.50;99.90;;;;;;5062408;28;20032;-72
2022/11/16 05:50:38;;;;;;;5.70;3.55;;;9.50;99.90;;;;;;5069067;28;20111;-72
2022/11/16 05:53:03;;;;;;;5.30;3.65;;;9.50;99.90;;;;;;5061373;28;20458;-72
2022/11/16 05:55:29;;;;;;;6.10;3.20;;;9.50;99.90;;;;;;5058930;28;20103;-72
2022/11/16 05:57:54;;;;;;;5.10;3.05;;;9.50;99.90;;;;;;5058096;28;20041;-72
2022/11/16 06:00:20;;;;;;;4.22;3.50;;;9.50;99.90;;;;;;5060427;28;20025;-72
2022/11/16 06:02:46;;;;;;;4.63;3.75;;;9.50;99.90;;;;;;5060631;28;20086;-72
2022/11/16 06:05:11;;;;;;;5.82;3.65;;;9.50;99.90;;;;;;5070056;28;20393;-72
2022/11/16 06:07:37;;;;;;;4.00;3.55;;;9.50;99.90;;;;;;5067544;28;20033;-73
2022/11/16 06:10:03;;;;;;;11.48;6.57;;;9.50;99.90;;;;;;5052968;28;20033;-72
2022/11/16 06:12:28;;;;;;;26.60;13.48;;;9.40;99.90;;;;;;5050901;28;20389;-72
2022/11/16 06:14:54;;;;;;;17.15;8.63;;;9.40;99.90;;;;;;5053643;28;20025;-72
2022/11/16 06:17:19;;;;;;;9.27;5.82;;;9.40;99.90;;;;;;5061154;28;20082;-72
2022/11/16 06:19:45;;;;;;;8.93;5.05;;;9.40;99.90;;;;;;5057949;28;20425;-73
2022/11/16 06:22:11;;;;;;;7.72;4.50;;;9.40;99.90;;;;;;5056515;28;20025;-72
2022/11/16 06:24:36;;;;;;;9.80;3.75;;;9.40;99.90;;;;;;5053889;28;20431;-72
2022/11/16 06:27:02;;;;;;;7.00;4.32;;;9.40;99.90;;;;;;5050333;28;20037;-71
2022/11/16 06:29:27;;;;;;;5.68;3.90;;;9.40;99.90;;;;;;5050315;28;20067;-70
2022/11/16 06:31:53;;;;;;;6.57;3.42;;;9.40;99.90;;;;;;5061490;28;20029;-71
2022/11/16 06:34:19;;;;;;;3.40;3.05;;;9.40;99.90;;;;;;5070669;28;20120;-70
2022/11/16 06:36:44;;;;;;;4.20;2.90;;;9.50;99.90;;;;;;5063034;28;20029;-70
2022/11/16 06:39:11;;;;;;;3.53;2.70;;;9.50;99.90;;;;;;5073275;28;20021;-71
2022/11/16 06:41:37;;;;;;;3.53;2.70;;;9.50;99.90;;;;;;5069104;28;20715;-71
2022/11/16 06:44:02;;;;;;;4.20;2.90;;;9.50;99.90;;;;;;5054176;28;20098;-70
2022/11/16 06:46:28;;;;;;;3.17;2.40;;;9.50;99.90;;;;;;5055327;28;20036;-71
2022/11/16 06:48:55;;;;;;;3.55;2.72;;;9.50;99.90;;;;;;5063089;28;20454;-69
2022/11/16 06:51:20;;;;;;;4.55;2.58;;;9.60;99.90;;;;;;5065816;28;20021;-68
2022/11/16 06:53:46;;;;;;;3.22;2.63;;;9.60;99.90;;;;;;5056438;28;20035;-71
2022/11/16 06:56:14;;;;;;;2.95;2.40;;;9.60;99.90;;;;;;5056358;28;20037;-70
2022/11/16 06:58:40;;;;;;;3.72;2.80;;;9.60;99.90;;;;;;5068982;28;20028;-70
2022/11/16 07:01:07;;;;;;;4.35;2.72;;;9.60;99.90;;;;;;5057200;28;20120;-71
2022/11/16 07:03:33;;;;;;;6.05;3.50;;;9.60;99.90;;;;;;5073160;28;20108;-69
2022/11/16 07:05:58;;;;;;;4.38;3.67;;;9.60;99.90;;;;;;5058135;28;20108;-69
2022/11/16 07:08:24;;;;;;;6.05;3.45;;;9.60;99.90;;;;;;5071471;28;20029;-69
2022/11/16 07:10:50;;;;;;;4.97;3.53;;;9.70;99.90;;;;;;5057874;28;20053;-69
2022/11/16 07:13:15;;;;;;;4.35;3.60;;;9.70;99.90;;;;;;5061397;28;20054;-69
2022/11/16 07:15:41;;;;;;;4.30;3.63;;;9.60;99.90;;;;;;5067116;28;20028;-69
2022/11/16 07:18:07;;;;;;;5.32;3.65;;;9.60;99.90;;;;;;5058832;28;20378;-68
2022/11/16 07:20:33;;;;;;;4.15;3.30;;;9.70;99.90;;;;;;5056086;28;20045;-66
2022/11/16 07:23:00;;;;;;;4.35;2.88;;;9.70;99.90;;;;;;5066722;28;20028;-69
2022/11/16 07:25:26;;;;;;;4.28;3.88;;;9.60;99.90;;;;;;5071974;28;20036;-68
2022/11/16 07:27:52;;;;;;;4.82;3.22;;;9.70;99.90;;;;;;5069291;28;20028;-69
2022/11/16 07:30:18;;;;;;;4.40;3.03;;;9.70;99.90;;;;;;5062037;28;20044;-69
2022/11/16 07:32:43;;;;;;;6.38;3.20;;;9.70;99.90;;;;;;5068443;28;20017;-69
2022/11/16 07:35:09;;;;;;;3.70;3.35;;;9.70;99.90;;;;;;5068800;28;20370;-69
2022/11/16 07:37:35;;;;;;;4.45;3.55;;;9.70;99.90;;;;;;5063695;28;20024;-69
2022/11/16 07:40:00;;;;;;;5.97;3.90;;;9.70;99.90;;;;;;5057735;28;20455;-69
2022/11/16 07:42:26;;;;;;;4.68;3.90;;;9.70;99.90;;;;;;5058912;28;20032;-69
2022/11/16 07:44:52;;;;;;;6.72;3.53;;;9.70;99.90;;;;;;5057891;28;20041;-69
2022/11/16 07:47:17;;;;;;;4.72;3.60;;;9.80;99.90;;;;;;5054626;28;20025;-68
2022/11/16 07:49:43;;;;;;;5.45;3.83;;;9.90;99.90;;;;;;5060478;28;20362;-69
2022/11/16 07:52:09;;;;;;;6.20;2.35;;;10.00;99.90;;;;;;5062535;28;20048;-69
2022/11/16 07:54:35;;;;;;;2.28;1.90;;;10.00;99.90;;;;;;5066838;28;20116;-69
2022/11/16 07:57:01;;;;;;;2.40;1.73;;;10.10;99.90;;;;;;5056659;28;20079;-69
2022/11/16 07:59:27;;;;;;;2.80;1.90;;;10.20;99.90;;;;;;5061008;28;20444;-68
2022/11/16 08:01:54;;;;;;;3.95;2.90;;;10.20;99.90;;;;;;5067598;28;20067;-69
2022/11/16 08:04:20;;;;;;;6.03;3.05;;;10.30;99.90;;;;;;5065254;28;20070;-68
2022/11/16 08:06:48;;;;;;;3.67;2.15;;;10.30;99.90;;;;;;5068537;28;20424;-69
2022/11/16 08:09:14;;;;;;;2.55;1.75;;;10.30;99.90;;;;;;5067226;28;20052;-68
2022/11/16 08:11:40;;;;;;;3.17;1.80;;;10.40;99.90;;;;;;5070152;28;20466;-68
2022/11/16 08:14:05;;;;;;;3.13;1.60;;;10.40;99.90;;;;;;5062107;28;20031;-69
2022/11/16 08:16:32;;;;;;;1.35;0.90;;;10.40;99.90;;;;;;5065173;28;20548;-69
2022/11/16 08:18:59;;;;;;;2.67;1.75;;;10.40;99.90;;;;;;5065304;28;20045;-69
2022/11/16 08:21:24;;;;;;;2.38;1.10;;;10.50;99.90;;;;;;5056023;28;20445;-69
2022/11/16 08:23:50;;;;;;;3.90;1.73;;;10.50;99.90;;;;;;5055292;28;20079;-69
2022/11/16 08:26:18;;;;;;;3.10;1.15;;;10.60;99.90;;;;;;5060916;28;20037;-68
2022/11/16 08:28:45;;;;;;;3.13;0.88;;;10.70;99.90;;;;;;5069391;28;20028;-69
2022/11/16 08:31:14;;;;;;;4.03;1.42;;;10.80;99.90;;;;;;5063492;28;20032;-69
2022/11/16 08:33:40;;;;;;;3.10;1.30;;;11.00;99.90;;;;;;5055149;28;20489;-69
2022/11/16 08:36:09;;;;;;;5.18;1.17;;;11.10;99.90;;;;;;5058929;28;20036;-68
2022/11/16 08:38:34;;;;;;;1.70;1.05;;;11.10;99.90;;;;;;5058574;28;20044;-69
2022/11/16 08:41:00;;;;;;;1.67;0.98;;;11.30;99.90;;;;;;5067757;28;20032;-68
2022/11/16 08:43:26;;;;;;;3.08;1.02;;;11.40;99.90;;;;;;5067615;28;20039;-68
2022/11/16 08:45:52;;;;;;;1.38;0.88;;;11.50;99.90;;;;;;5056625;28;20037;-68
2022/11/16 08:48:18;;;;;;;1.90;1.00;;;11.50;99.90;;;;;;5064208;28;20029;-69
2022/11/16 08:50:44;;;;;;;4.32;1.35;;;11.50;99.90;;;;;;5056499;28;20039;-69
2022/11/16 08:53:09;;;;;;;3.35;0.77;;;11.50;99.90;;;;;;5066459;28;20444;-68
2022/11/16 08:55:35;;;;;;;1.65;0.90;;;11.50;99.90;;;;;;5067726;28;20110;-69
2022/11/16 08:58:01;;;;;;;2.03;1.10;;;11.50;99.90;;;;;;5069849;28;20044;-67
2022/11/16 09:00:27;;;;;;;1.23;0.90;;;11.50;99.90;;;;;;5053203;28;20051;-68
2022/11/16 09:02:52;;;;;;;1.98;0.88;;;11.50;99.90;;;;;;5063268;28;20559;-68
2022/11/16 09:05:18;;;;;;;3.03;1.00;;;11.50;99.90;;;;;;5061553;28;20058;-68
2022/11/16 09:07:44;;;;;;;3.33;1.25;;;11.60;99.90;;;;;;5060681;28;20024;-69
2022/11/16 09:10:11;;;;;;;4.35;1.40;;;11.50;99.90;;;;;;5054032;28;20104;-68
2022/11/16 09:12:37;;;;;;;4.88;1.10;;;11.50;99.90;;;;;;5059116;28;20524;-69
2022/11/16 09:15:04;;;;;;;2.33;1.00;;;11.50;99.90;;;;;;5065671;28;20024;-67
2022/11/16 09:17:30;;;;;;;2.38;1.10;;;11.50;99.90;;;;;;5067003;28;20050;-68
2022/11/16 09:19:56;;;;;;;1.98;1.10;;;11.50;99.90;;;;;;5066813;28;20637;-68
2022/11/16 09:22:21;;;;;;;3.80;0.90;;;11.60;99.90;;;;;;5066876;28;20107;-68
2022/11/16 09:24:47;;;;;;;1.65;0.77;;;11.60;99.90;;;;;;5063243;28;20089;-68
2022/11/16 09:27:13;;;;;;;4.38;1.10;;;11.70;99.90;;;;;;5065784;28;20028;-67
2022/11/16 09:29:39;;;;;;;1.48;0.90;;;11.70;99.90;;;;;;5061431;28;20475;-69
2022/11/16 09:32:05;;;;;;;2.10;0.70;;;11.80;99.90;;;;;;5065739;28;20115;-68
2022/11/16 09:34:33;;;;;;;3.55;1.08;;;11.80;99.90;;;;;;5066312;28;20153;-68
2022/11/16 09:36:59;;;;;;;2.47;1.05;;;11.80;99.90;;;;;;5057484;28;20122;-69
2022/11/16 09:39:26;;;;;;;2.55;0.90;;;11.70;99.90;;;;;;5058934;28;20137;-69
2022/11/16 09:42:33;;;;;;;7.50;1.15;;;11.70;99.90;;;;;;5060317;28;20016;-68
2022/11/16 09:45:08;;;;;;;4.50;1.15;;;11.80;99.90;;;;;;5054569;28;20036;-68
2022/11/16 09:47:47;;;;;;;4.72;1.20;;;11.80;99.90;;;;;;5062794;28;20032;-68
2022/11/16 09:50:45;;;;;;;5.88;1.40;;;11.80;99.90;;;;;;5059546;28;20666;-67
2022/11/16 09:53:39;;;;;;;3.15;1.38;;;11.80;99.90;;;;;;5055660;28;20124;-69
2022/11/16 09:56:21;;;;;;;5.10;1.65;;;11.90;99.90;;;;;;5058505;28;20529;-69
2022/11/16 09:59:16;;;;;;;6.80;1.75;;;12.00;99.90;;;;;;5061940;28;20550;-68
2022/11/16 10:02:01;;;;;;;2.80;1.00;;;12.10;99.90;;;;;;5059214;28;20100;-68
2022/11/16 10:05:12;;;;;;;0.82;0.68;;;12.20;99.90;;;;;;5052482;28;20112;-68
2022/11/16 10:07:42;;;;;;;2.38;1.08;;;12.30;99.90;;;;;;5003649;28;20531;-68
2022/11/16 10:10:21;;;;;;;;;;;12.40;99.90;;;;;;5061325;28;20112;-68
2022/11/16 10:13:07;;;;;;;5.07;1.10;;;12.50;99.90;;;;;;5061585;28;20384;-68
2022/11/16 10:15:45;;;;;;;1.58;0.70;;;12.60;99.90;;;;;;5063222;28;20024;-68
2022/11/16 10:18:21;;;;;;;1.15;0.60;;;12.80;99.90;;;;;;5060553;28;20100;-68
2022/11/16 10:21:19;;;;;;;3.03;0.73;;;12.90;99.90;;;;;;5064196;28;20041;-67
2022/11/16 10:23:59;;;;;;;2.50;1.00;;;13.00;99.90;;;;;;5068919;28;20107;-67
2022/11/16 10:26:38;;;;;;;;;;;13.00;99.90;;;;;;5061933;28;20101;-72
2022/11/16 10:29:51;;;;;;;3.00;1.05;;;13.00;99.90;;;;;;5069332;28;19912;-67
2022/11/16 10:32:26;;;;;;;3.45;0.90;;;13.10;99.90;;;;;;5057790;28;20516;-69
2022/11/16 10:35:01;;;;;;;2.70;0.77;;;13.10;99.90;;;;;;5061748;28;20501;-69
2022/11/16 10:37:30;;;;;;;2.67;1.45;;;13.10;99.90;;;;;;5056544;28;20468;-68
2022/11/16 10:39:56;;;;;;;2.58;1.10;;;13.20;99.90;;;;;;5055060;28;20358;-68
2022/11/16 10:42:35;;;;;;;2.95;1.55;;;13.40;99.90;;;;;;5056614;28;20025;-68
2022/11/16 10:45:14;;;;;;;2.80;1.52;;;13.50;99.90;;;;;;5056348;28;20025;-68
2022/11/16 10:47:59;;;;;;;3.65;1.92;;;13.70;99.90;;;;;;5069435;28;20024;-69
2022/11/16 10:50:33;;;;;;;1.90;1.20;;;13.70;99.90;;;;;;5067268;28;20029;-69
2022/11/16 10:52:59;;;;;;;7.28;1.10;;;13.70;99.90;;;;;;5060770;28;20025;-69
2022/11/16 10:55:27;;;;;;;1.08;0.70;;;13.70;99.90;;;;;;5067111;28;20033;-69
2022/11/16 10:58:04;;;;;;;2.75;0.95;;;13.70;99.90;;;;;;5063796;28;20040;-69
2022/11/16 11:00:40;;;;;;;1.65;0.73;;;13.90;99.90;;;;;;5073485;28;20474;-67
2022/11/16 11:03:08;;;;;;;3.67;0.65;;;14.00;99.90;;;;;;5063251;28;20081;-69
2022/11/16 11:05:35;;;;;;;3.65;0.90;;;14.00;99.90;;;;;;5064827;28;20048;-69
2022/11/16 11:08:02;;;;;;;2.97;1.00;;;14.20;99.90;;;;;;5072496;28;20024;-68
2022/11/16 11:10:29;;;;;;;0.57;0.57;;;14.40;99.90;;;;;;5058368;28;20032;-68
2022/11/16 11:13:10;;;;;;;2.83;0.80;;;14.50;99.90;;;;;;5066623;28;20249;-68
2022/11/16 11:15:41;;;;;;;2.45;0.90;;;14.70;99.90;;;;;;5065848;28;20032;-69
2022/11/16 11:18:11;;;;;;;2.97;1.13;;;14.80;99.90;;;;;;5061142;28;20033;-68
2022/11/16 11:20:37;;;;;;;;;;;14.90;99.90;;;;;;5053478;28;20138;-68
2022/11/16 11:23:14;;;;;;;3.15;1.00;;;15.00;99.90;;;;;;5056861;28;20265;-68
2022/11/16 11:25:59;;;;;;;2.58;1.08;;;15.00;99.90;;;;;;5068671;28;20544;-69
2022/11/16 11:28:33;;;;;;;1.63;0.57;;;15.00;99.90;;;;;;5067652;28;20036;-68
2022/11/16 11:31:10;;;;;;;1.25;0.60;;;15.00;99.90;;;;;;5062245;28;20032;-69
2022/11/16 11:33:41;;;;;;;4.13;0.80;;;14.80;99.90;;;;;;5068626;28;20035;-68
2022/11/16 11:36:19;;;;;;;1.40;0.63;;;14.60;99.90;;;;;;5068443;28;20048;-67
2022/11/16 11:39:05;;;;;;;2.40;0.85;;;14.40;99.90;;;;;;5063342;28;20036;-68
2022/11/16 11:41:39;;;;;;;3.22;1.35;;;14.20;99.90;;;;;;5056792;28;20063;-68
2022/11/16 11:44:18;;;;;;;2.05;0.60;;;14.10;99.90;;;;;;5073394;28;20110;-68
2022/11/16 11:46:54;;;;;;;1.98;0.95;;;14.00;99.90;;;;;;5064041;28;20529;-68
2022/11/16 11:49:24;;;;;;;3.97;1.30;;;14.00;99.90;;;;;;5064737;28;20041;-68
2022/11/16 11:51:51;;;;;;;3.65;1.02;;;14.00;99.90;;;;;;5059731;28;20025;-69
2022/11/16 11:54:36;;;;;;;4.70;0.93;;;13.90;99.90;;;;;;5060849;28;20024;-68
2022/11/16 11:57:03;;;;;;;1.30;0.98;;;14.00;99.90;;;;;;5071055;28;20071;-68
2022/11/16 11:59:29;;;;;;;2.97;1.00;;;14.00;99.90;;;;;;5062506;28;20028;-68
2022/11/16 12:02:24;;;;;;;3.75;0.88;;;14.00;99.90;;;;;;5065806;28;20539;-69
2022/11/16 12:05:14;;;;;;;4.43;0.90;;;14.10;99.90;;;;;;5057186;28;20068;-68
2022/11/16 12:07:58;;;;;;;2.80;1.10;;;14.10;99.90;;;;;;5067596;28;20074;-68
2022/11/16 12:10:36;;;;;;;4.15;1.08;;;14.10;99.90;;;;;;5063759;28;20111;-68
2022/11/16 12:13:30;;;;;;;5.25;1.63;;;14.10;99.90;;;;;;5060034;28;20029;-69
2022/11/16 12:16:26;;;;;;;1.02;0.70;;;14.10;99.90;;;;;;5062079;28;20655;-69
2022/11/16 12:19:00;;;;;;;2.63;0.82;;;14.30;99.90;;;;;;5064028;28;20109;-69
2022/11/16 12:22:09;;;;;;;1.88;0.60;;;14.50;99.90;;;;;;5055114;28;20044;-70
2022/11/16 12:24:46;;;;;;;4.40;0.57;;;14.60;99.90;;;;;;5062224;28;20028;-69
2022/11/16 12:27:45;;;;;;;1.38;0.60;;;14.80;99.90;;;;;;5053841;28;20114;-69
2022/11/16 12:30:20;;;;;;;2.47;0.60;;;15.10;99.90;;;;;;5070208;28;20366;-69
2022/11/16 12:32:52;;;;;;;2.80;0.70;;;15.30;99.90;;;;;;5055067;28;20044;-69
2022/11/16 12:35:32;;;;;;;1.40;0.38;;;;;;;;;;5070419;28;20385;-70
2022/11/16 12:38:13;;;;;;;1.95;0.57;;;15.70;99.90;;;;;;5060331;28;20048;-68
2022/11/16 12:40:41;;;;;;;1.38;0.57;;;15.60;99.90;;;;;;5054793;28;20463;-69
2022/11/16 12:43:38;;;;;;;2.13;0.63;;;15.70;99.90;;;;;;5064630;28;20032;-68
2022/11/16 12:46:09;;;;;;;3.17;0.60;;;15.50;99.90;;;;;;5060710;28;20043;-67
2022/11/16 12:49:13;;;;;;;2.05;0.40;;;15.50;99.90;;;;;;5062315;28;20057;-68
2022/11/16 12:52:25;;;;;;;4.15;0.70;;;15.40;99.90;;;;;;5059380;28;20045;-68
2022/11/16 12:55:13;;;;;;;3.08;0.50;;;15.50;99.90;;;;;;5055122;28;20056;-69
2022/11/16 12:57:55;;;;;;;1.75;0.52;;;15.60;99.90;;;;;;5057990;28;20527;-69
2022/11/16 13:00:21;;;;;;;3.30;0.57;;;15.60;99.90;;;;;;5059874;28;20029;-70
2022/11/16 13:03:08;;;;;;;5.72;0.35;;;15.70;99.90;;;;;;5053081;28;20370;-69
2022/11/16 13:05:52;;;;;;;4.40;0.68;;;15.70;99.90;;;;;;5068690;28;20063;-70
2022/11/16 13:08:59;;;;;;;1.08;0.50;;;15.70;99.90;;;;;;5069816;28;20025;-70
2022/11/16 13:11:31;;;;;;;3.75;0.63;;;15.70;99.90;;;;;;5059443;28;20047;-69
2022/11/16 13:14:04;;;;;;;1.25;0.65;;;15.70;99.90;;;;;;5058983;28;20064;-69
2022/11/16 13:16:30;;;;;;;1.65;0.65;;;15.60;99.90;;;;;;5065689;28;20028;-69
2022/11/16 13:18:58;;;;;;;1.27;0.52;;;15.70;99.90;;;;;;5063176;28;20037;-69
2022/11/16 13:21:23;;;;;;;2.55;0.77;;;15.70;99.90;;;;;;5066315;28;20047;-69
2022/11/16 13:24:05;;;;;;;2.40;0.47;;;15.70;99.90;;;;;;5068320;28;20029;-69
2022/11/16 13:26:41;;;;;;;0.93;0.30;;;15.80;99.90;;;;;;5064777;28;20032;-68
2022/11/16 13:29:41;;;;;;;1.20;0.47;;;15.80;99.90;;;;;;5058056;28;20152;-69
2022/11/16 13:32:29;;;;;;;2.55;0.80;;;15.70;99.90;;;;;;5058929;28;20051;-69
2022/11/16 13:34:57;;;;;;;4.40;0.77;;;15.60;99.90;;;;;;5066547;28;20865;-69
2022/11/16 13:37:38;;;;;;;2.15;0.65;;;15.40;99.90;;;;;;5059552;28;20032;-69
2022/11/16 13:40:03;;;;;;;2.30;0.50;;;15.30;99.90;;;;;;5075174;28;20047;-69
2022/11/16 13:42:32;;;;;;;2.28;0.73;;;15.20;99.90;;;;;;5059983;28;20025;-69
2022/11/16 13:45:31;;;;;;;2.70;0.60;;;15.10;99.90;;;;;;5063985;28;20064;-69
2022/11/16 13:47:57;;;;;;;4.70;0.80;;;15.00;99.90;;;;;;5057011;28;20177;-69
2022/11/16 13:50:37;;;;;;;3.60;0.75;;;14.80;99.90;;;;;;5069423;28;20107;-69
2022/11/16 13:53:22;;;;;;;3.30;0.80;;;14.70;99.90;;;;;;5063558;28;20098;-70
2022/11/16 13:55:55;;;;;;;4.00;0.88;;;14.60;99.90;;;;;;5069984;28;20083;-70
2022/11/16 13:58:22;;;;;;;4.50;0.90;;;14.50;99.90;;;;;;5073603;28;20182;-68